Time;durP1;ratioP1;P1;durP2;ratioP2;P2;SDS_P1;SDS_P2;PMS_P1;PMS_P2;Temp;Humidity;BMP_temperature;BMP_pressure;BME280_temperature;BME280_humidity;BME280_pressure;Samples;Min_cycle;Max_cycle;Signal;HPM_P1;HPM_P2
2023/01/17 00:01:58;;;;;;;25.10;15.48;;;2.10;86.40;;;;;;5073247;28;20128;-12
2023/01/17 00:09:55;;;;;;;23.63;14.82;;;2.20;86.30;;;;;;5072854;28;20032;-13
2023/01/17 00:12:27;;;;;;;22.20;14.63;;;2.20;86.30;;;;;;5072723;28;20439;-12
2023/01/17 00:14:55;;;;;;;22.40;13.77;;;2.30;86.30;;;;;;5073094;28;20021;-14
2023/01/17 00:17:22;;;;;;;22.70;14.85;;;2.40;86.30;;;;;;5072799;28;20374;-12
2023/01/17 01:35:11;;;;;;;24.45;15.55;;;3.20;86.90;;;;;;5072850;28;20036;-12
2023/01/17 01:37:37;;;;;;;19.95;13.02;;;3.20;86.90;;;;;;5072275;28;20020;-13
2023/01/17 01:40:03;;;;;;;19.70;13.27;;;3.20;86.90;;;;;;5072045;28;20036;-13
2023/01/17 01:42:29;;;;;;;25.30;16.30;;;3.30;86.80;;;;;;5073549;28;20067;-12
2023/01/17 01:44:55;;;;;;;21.27;14.50;;;3.30;86.90;;;;;;5075585;28;20064;-14
2023/01/17 01:47:35;;;;;;;29.20;18.55;;;3.40;87.00;;;;;;5074134;28;20027;-13
2023/01/17 01:50:05;;;;;;;20.90;13.48;;;3.50;87.10;;;;;;5075785;28;20480;-14
2023/01/17 01:52:35;;;;;;;31.10;18.75;;;3.50;87.00;;;;;;5075274;28;20020;-13
2023/01/17 01:55:16;;;;;;;29.23;18.63;;;3.50;86.90;;;;;;5075113;28;20033;-13
2023/01/17 01:57:49;;;;;;;30.98;18.92;;;3.50;87.00;;;;;;5075672;28;20028;-13
2023/01/17 02:00:28;;;;;;;27.20;19.23;;;3.50;86.90;;;;;;5075620;28;20483;-13
2023/01/17 02:02:57;;;;;;;30.38;19.15;;;3.40;86.80;;;;;;5075168;28;20441;-13
2023/01/17 02:05:25;;;;;;;28.33;17.95;;;3.40;86.70;;;;;;5075150;28;20033;-13
2023/01/17 02:07:58;;;;;;;30.13;18.33;;;3.40;86.70;;;;;;5075190;28;20040;-13
2023/01/17 02:10:24;;;;;;;32.13;19.27;;;3.40;86.70;;;;;;5075371;28;20091;-13
2023/01/17 02:12:52;;;;;;;31.50;20.02;;;3.30;86.80;;;;;;5074895;28;20480;-14
2023/01/17 02:15:21;;;;;;;30.13;20.23;;;3.30;86.80;;;;;;5075334;28;20107;-13
2023/01/17 02:18:05;;;;;;;28.02;17.55;;;3.20;86.80;;;;;;5075266;28;20055;-14
2023/01/17 02:20:40;;;;;;;;;;;3.20;86.80;;;;;;5075410;28;20357;-14
2023/01/17 02:23:37;;;;;;;28.60;17.95;;;3.20;86.90;;;;;;5074989;28;19978;-13
2023/01/17 02:26:18;;;;;;;28.00;16.02;;;3.20;87.00;;;;;;5074934;28;20065;-14
2023/01/17 02:29:14;;;;;;;24.80;16.33;;;3.20;87.10;;;;;;5074566;28;20427;-13
2023/01/17 02:32:03;;;;;;;29.08;18.05;;;3.20;87.10;;;;;;5075150;28;20064;-13
2023/01/17 02:34:32;;;;;;;25.27;15.00;;;3.30;87.10;;;;;;5075049;28;20028;-14
2023/01/17 02:37:10;;;;;;;32.33;20.00;;;3.30;87.20;;;;;;5074374;28;20021;-13
2023/01/17 02:39:48;;;;;;;30.27;18.38;;;3.30;87.30;;;;;;5074877;28;20055;-14
2023/01/17 02:42:18;;;;;;;18.17;13.13;;;3.40;87.50;;;;;;5074652;28;20030;-14
2023/01/17 02:44:44;;;;;;;33.00;20.02;;;3.40;87.40;;;;;;5074839;28;20145;-12
2023/01/17 02:47:25;;;;;;;28.88;17.83;;;3.50;87.30;;;;;;5074249;28;20064;-14
2023/01/17 02:50:17;;;;;;;29.13;17.60;;;3.50;87.40;;;;;;5074396;28;20029;-14
2023/01/17 02:53:14;;;;;;;28.92;18.02;;;3.60;87.40;;;;;;5074493;28;20033;-13
2023/01/17 02:56:33;;;;;;;23.73;15.15;;;3.60;87.50;;;;;;5073797;28;20475;-14
2023/01/17 02:59:11;;;;;;;27.02;17.40;;;3.70;87.30;;;;;;5043733;28;20400;-13
2023/01/17 03:01:52;;;;;;;30.45;19.02;;;3.80;87.00;;;;;;5074507;28;20365;-13
2023/01/17 03:04:33;;;;;;;29.08;19.98;;;3.90;87.00;;;;;;5074184;28;20045;-12
2023/01/17 03:07:11;;;;;;;23.55;15.73;;;3.80;87.20;;;;;;5074594;28;20479;-14
2023/01/17 03:09:42;;;;;;;24.33;16.08;;;3.90;87.10;;;;;;5074172;28;20035;-13
2023/01/17 03:12:08;;;;;;;25.90;17.13;;;3.90;87.20;;;;;;5073955;28;20052;-14
2023/01/17 03:14:34;;;;;;;22.65;15.93;;;3.90;87.10;;;;;;5074465;28;20095;-13
2023/01/17 03:17:00;;;;;;;21.17;13.93;;;3.90;87.10;;;;;;5073637;28;20190;-14
2023/01/17 03:19:26;;;;;;;30.33;20.00;;;3.90;87.00;;;;;;5074160;28;20017;-14
2023/01/17 03:21:52;;;;;;;25.65;16.98;;;3.90;87.00;;;;;;5073905;28;20024;-13
2023/01/17 03:24:18;;;;;;;27.75;18.65;;;3.90;87.10;;;;;;5072319;28;20389;-13
2023/01/17 03:26:46;;;;;;;31.30;20.30;;;3.90;87.20;;;;;;5073522;28;20499;-13
2023/01/17 03:29:14;;;;;;;22.60;15.60;;;3.90;87.40;;;;;;5073615;28;20162;-13
2023/01/17 03:31:39;;;;;;;22.58;15.07;;;3.90;87.30;;;;;;5073836;28;20033;-13
2023/01/17 03:34:05;;;;;;;26.45;18.02;;;3.90;87.20;;;;;;5073465;28;20029;-14
2023/01/17 03:36:31;;;;;;;25.35;17.48;;;4.00;87.00;;;;;;5073651;28;20027;-13
2023/01/17 03:38:57;;;;;;;23.00;16.02;;;4.00;86.80;;;;;;5071851;28;20106;-13
2023/01/17 03:41:23;;;;;;;26.38;17.25;;;4.10;86.60;;;;;;5073768;28;20032;-13
2023/01/17 03:43:49;;;;;;;21.75;14.48;;;4.00;86.60;;;;;;5073320;28;20496;-13
2023/01/17 03:46:23;;;;;;;25.48;17.33;;;4.10;86.60;;;;;;5073838;28;20111;-12
2023/01/17 03:48:50;;;;;;;29.75;19.15;;;4.10;86.60;;;;;;5073404;28;20518;-13
2023/01/17 03:51:16;;;;;;;29.45;18.90;;;4.00;86.50;;;;;;5073242;28;20036;-14
2023/01/17 03:53:45;;;;;;;25.60;15.98;;;4.00;86.50;;;;;;5073539;28;20119;-13
2023/01/17 03:56:11;;;;;;;24.20;16.02;;;3.90;86.50;;;;;;5073104;28;20031;-14
2023/01/17 03:58:37;;;;;;;25.95;16.65;;;3.90;86.60;;;;;;5073178;28;20025;-13
2023/01/17 04:01:03;;;;;;;30.08;19.50;;;3.90;86.70;;;;;;5073020;28;20082;-14
2023/01/17 04:03:29;;;;;;;19.90;13.93;;;3.90;86.70;;;;;;5072987;28;20056;-14
2023/01/17 04:05:55;;;;;;;21.73;13.85;;;3.90;86.70;;;;;;5072308;28;20029;-13
2023/01/17 04:08:21;;;;;;;21.13;14.23;;;3.90;86.70;;;;;;5072917;28;20094;-13
2023/01/17 04:10:47;;;;;;;25.02;16.10;;;3.90;86.70;;;;;;5072694;28;20050;-13
2023/01/17 04:13:15;;;;;;;19.02;12.80;;;3.80;86.70;;;;;;5073218;28;20025;-13
2023/01/17 04:15:45;;;;;;;22.08;13.85;;;3.80;86.70;;;;;;5073080;28;20031;-13
2023/01/17 04:18:12;;;;;;;19.05;12.20;;;3.80;86.70;;;;;;5071387;28;20017;-13
2023/01/17 04:20:39;;;;;;;19.20;12.73;;;3.70;86.80;;;;;;5072847;28;20044;-14
2023/01/17 04:23:06;;;;;;;22.05;14.35;;;3.70;86.90;;;;;;5072745;28;20047;-12
2023/01/17 04:25:32;;;;;;;20.83;13.95;;;3.70;86.90;;;;;;5073126;28;20472;-13
2023/01/17 04:27:59;;;;;;;22.17;15.07;;;3.70;86.90;;;;;;5072279;28;20127;-13
2023/01/17 04:30:27;;;;;;;27.00;16.95;;;3.70;87.00;;;;;;5072467;28;20484;-13
2023/01/17 04:32:54;;;;;;;17.65;11.68;;;3.70;86.90;;;;;;5072414;28;20060;-13
2023/01/17 04:35:20;;;;;;;17.65;12.93;;;3.70;86.90;;;;;;5072860;28;20020;-12
2023/01/17 04:37:46;;;;;;;18.33;11.80;;;3.70;86.90;;;;;;5072432;28;20545;-12
2023/01/17 04:40:13;;;;;;;21.33;12.45;;;3.70;87.00;;;;;;5072579;28;20038;-14
2023/01/17 04:42:39;;;;;;;16.33;11.52;;;3.70;87.00;;;;;;5072497;28;20025;-13
2023/01/17 04:45:06;;;;;;;18.73;11.95;;;3.70;87.00;;;;;;5072201;28;20039;-12
2023/01/17 04:47:33;;;;;;;18.52;12.23;;;3.70;87.10;;;;;;5072376;28;20031;-11
2023/01/17 04:49:59;;;;;;;24.60;16.23;;;3.70;87.00;;;;;;5072252;28;20039;-11
2023/01/17 04:52:25;;;;;;;18.08;12.57;;;3.80;87.10;;;;;;5072665;28;20025;-12
2023/01/17 04:54:51;;;;;;;30.73;18.63;;;3.80;87.10;;;;;;5072213;28;20091;-12
2023/01/17 04:57:18;;;;;;;23.27;16.48;;;3.90;87.00;;;;;;5072221;28;20031;-12
2023/01/17 04:59:45;;;;;;;29.90;18.27;;;3.80;87.00;;;;;;5072537;28;20070;-12
2023/01/17 05:02:11;;;;;;;21.20;14.55;;;3.80;87.00;;;;;;5072548;28;20021;-13
2023/01/17 05:04:37;;;;;;;28.40;17.60;;;3.80;87.00;;;;;;5072563;28;20549;-12
2023/01/17 05:07:04;;;;;;;26.65;18.85;;;3.80;87.10;;;;;;5072087;28;20028;-12
2023/01/17 05:09:30;;;;;;;23.70;15.80;;;3.80;87.20;;;;;;5072267;28;20021;-12
2023/01/17 05:11:56;;;;;;;28.30;19.10;;;3.80;87.20;;;;;;5072576;28;20036;-14
2023/01/17 05:14:25;;;;;;;22.25;14.60;;;3.80;87.20;;;;;;5072371;28;20029;-13
2023/01/17 05:16:55;;;;;;;23.08;14.98;;;3.90;87.20;;;;;;5072547;28;20040;-12
2023/01/17 05:19:22;;;;;;;25.55;16.75;;;3.90;87.20;;;;;;5074928;28;20024;-12
2023/01/17 05:21:48;;;;;;;28.73;19.80;;;3.90;87.30;;;;;;5076268;28;20503;-12
2023/01/17 05:24:14;;;;;;;27.98;19.52;;;3.90;87.40;;;;;;5075923;28;20024;-12
2023/01/17 05:26:41;;;;;;;19.08;13.90;;;3.90;87.30;;;;;;5075612;28;20110;-12
2023/01/17 05:29:10;;;;;;;19.52;13.70;;;4.00;87.20;;;;;;5075736;28;20028;-12
2023/01/17 05:31:37;;;;;;;23.67;16.77;;;3.90;87.10;;;;;;5075946;28;20028;-13
2023/01/17 05:34:03;;;;;;;28.23;17.63;;;3.90;87.10;;;;;;5075936;28;20025;-12
2023/01/17 05:36:29;;;;;;;31.00;19.40;;;3.90;87.10;;;;;;5075748;28;20060;-12
2023/01/17 05:38:55;;;;;;;28.42;19.52;;;3.90;87.10;;;;;;5075363;28;20429;-12
2023/01/17 05:41:21;;;;;;;26.10;17.30;;;3.90;87.10;;;;;;5074427;28;20027;-12
2023/01/17 05:43:47;;;;;;;24.92;17.70;;;3.90;87.10;;;;;;5074311;28;20029;-13
2023/01/17 05:46:14;;;;;;;25.60;17.77;;;3.90;87.10;;;;;;5076143;28;20021;-12
2023/01/17 05:48:40;;;;;;;29.42;19.23;;;3.90;87.10;;;;;;5075648;28;20035;-14
2023/01/17 05:51:06;;;;;;;33.58;20.42;;;3.80;87.10;;;;;;5075239;28;20024;-12
2023/01/17 05:53:32;;;;;;;27.30;18.42;;;3.90;87.20;;;;;;5075526;28;20024;-12
2023/01/17 05:55:58;;;;;;;29.13;20.15;;;3.80;87.20;;;;;;5075715;28;20020;-13
2023/01/17 05:58:24;;;;;;;30.02;20.13;;;3.90;87.20;;;;;;5074039;28;20023;-13
2023/01/17 06:00:50;;;;;;;28.63;20.05;;;3.90;87.20;;;;;;5075079;28;20024;-12
2023/01/17 06:03:16;;;;;;;29.88;20.75;;;3.90;87.20;;;;;;5075338;28;20032;-13
2023/01/17 06:05:43;;;;;;;29.75;19.65;;;3.80;87.20;;;;;;5073946;28;20028;-13
2023/01/17 06:08:09;;;;;;;32.45;21.58;;;3.80;87.10;;;;;;5075361;28;20064;-13
2023/01/17 06:10:35;;;;;;;36.88;24.17;;;3.80;87.20;;;;;;5075062;28;20106;-13
2023/01/17 06:13:04;;;;;;;32.78;20.70;;;3.70;87.10;;;;;;5074963;28;20025;-13
2023/01/17 06:15:30;;;;;;;37.72;24.42;;;3.60;87.30;;;;;;5075184;28;20029;-13
2023/01/17 06:17:57;;;;;;;37.67;24.83;;;3.70;87.50;;;;;;5075060;28;20025;-13
2023/01/17 06:20:22;;;;;;;33.42;23.02;;;3.70;87.60;;;;;;5074999;28;20404;-13
2023/01/17 06:22:49;;;;;;;35.28;23.23;;;3.70;87.70;;;;;;5074829;28;20032;-14
2023/01/17 06:25:14;;;;;;;35.22;22.33;;;3.70;87.70;;;;;;5074821;28;20024;-13
2023/01/17 06:27:40;;;;;;;37.97;23.95;;;3.70;87.70;;;;;;5074835;28;20102;-13
2023/01/17 06:30:07;;;;;;;32.85;20.60;;;3.70;88.00;;;;;;5073795;28;20025;-14
2023/01/17 06:32:32;;;;;;;33.17;21.92;;;3.70;88.00;;;;;;5075021;28;20032;-13
2023/01/17 06:34:58;;;;;;;34.75;22.75;;;3.70;87.90;;;;;;5074946;28;20442;-13
2023/01/17 06:37:25;;;;;;;30.98;21.20;;;3.80;88.00;;;;;;5074926;28;20481;-13
2023/01/17 06:39:50;;;;;;;35.20;23.10;;;3.80;88.00;;;;;;5074799;28;20115;-14
2023/01/17 06:42:16;;;;;;;34.50;22.38;;;3.80;88.10;;;;;;5074993;28;20137;-13
2023/01/17 06:44:42;;;;;;;35.20;23.45;;;3.90;88.00;;;;;;5074836;28;20111;-13
2023/01/17 06:47:08;;;;;;;34.53;23.17;;;3.90;88.00;;;;;;5074358;28;20384;-13
2023/01/17 06:49:34;;;;;;;34.45;23.60;;;3.90;88.00;;;;;;5074492;28;20021;-14
2023/01/17 06:52:00;;;;;;;36.63;24.40;;;3.90;88.00;;;;;;5074535;28;20028;-14
2023/01/17 06:54:26;;;;;;;40.70;24.85;;;3.90;88.00;;;;;;5074853;28;20051;-13
2023/01/17 06:56:51;;;;;;;36.63;22.77;;;3.90;88.30;;;;;;5074405;28;20407;-12
2023/01/17 06:59:18;;;;;;;33.92;22.70;;;3.90;88.20;;;;;;5074365;28;20095;-13
2023/01/17 07:01:44;;;;;;;31.10;20.00;;;3.90;88.30;;;;;;5074485;28;20016;-14
2023/01/17 07:04:09;;;;;;;34.65;21.92;;;4.00;88.20;;;;;;5074055;28;20353;-15
2023/01/17 07:06:36;;;;;;;31.25;20.52;;;4.00;88.20;;;;;;5074725;28;20025;-14
2023/01/17 07:09:03;;;;;;;32.00;21.05;;;4.10;88.20;;;;;;5073724;28;20032;-13
2023/01/17 07:11:29;;;;;;;28.58;18.50;;;4.10;88.00;;;;;;5074285;28;20048;-11
2023/01/17 07:13:55;;;;;;;30.85;19.15;;;4.10;87.90;;;;;;5074083;28;20060;-11
2023/01/17 07:16:21;;;;;;;31.35;18.20;;;4.20;87.80;;;;;;5074070;28;20067;-12
2023/01/17 07:18:47;;;;;;;29.50;17.05;;;4.20;87.70;;;;;;5073919;28;20040;-13
2023/01/17 07:21:14;;;;;;;29.40;16.95;;;4.30;87.70;;;;;;5073860;28;20384;-12
2023/01/17 07:23:40;;;;;;;26.08;17.00;;;4.30;87.60;;;;;;5074111;28;20051;-13
2023/01/17 07:26:06;;;;;;;27.42;18.08;;;4.40;87.70;;;;;;5073909;28;20040;-12
2023/01/17 07:28:32;;;;;;;27.98;16.50;;;4.40;87.80;;;;;;5073469;28;20036;-12
2023/01/17 07:31:02;;;;;;;23.65;15.23;;;4.40;87.90;;;;;;5074016;28;20029;-12
2023/01/17 07:33:28;;;;;;;28.38;17.02;;;4.40;87.90;;;;;;5073891;28;20089;-12
2023/01/17 07:35:54;;;;;;;24.80;15.20;;;4.40;88.00;;;;;;5073795;28;20119;-12
2023/01/17 07:38:20;;;;;;;25.40;15.32;;;4.40;88.00;;;;;;5073713;28;20023;-13
2023/01/17 07:40:45;;;;;;;26.88;15.90;;;4.40;87.90;;;;;;5073361;28;20028;-12
2023/01/17 07:43:15;;;;;;;24.17;13.85;;;4.50;87.80;;;;;;5073436;28;20146;-12
2023/01/17 07:45:48;;;;;;;23.67;14.82;;;4.60;87.70;;;;;;5074192;28;20024;-12
2023/01/17 07:48:14;;;;;;;24.83;15.50;;;4.60;87.80;;;;;;5073706;28;20094;-11
2023/01/17 07:50:40;;;;;;;27.08;15.57;;;4.60;87.80;;;;;;5073273;28;20036;-13
2023/01/17 07:53:05;;;;;;;25.52;14.82;;;4.60;87.90;;;;;;5073001;28;20031;-11
2023/01/17 07:55:32;;;;;;;24.40;14.93;;;4.70;87.90;;;;;;5073366;28;20048;-12
2023/01/17 07:57:57;;;;;;;23.35;14.70;;;4.70;88.00;;;;;;5073254;28;20025;-12
2023/01/17 08:00:26;;;;;;;27.67;15.93;;;4.80;87.70;;;;;;5073289;28;20025;-11
2023/01/17 08:03:01;;;;;;;25.67;14.57;;;4.80;87.60;;;;;;5072892;28;20434;-11
2023/01/17 08:05:29;;;;;;;22.85;13.73;;;4.90;87.40;;;;;;5072993;28;20556;-12
2023/01/17 08:07:55;;;;;;;24.08;15.23;;;4.90;87.20;;;;;;5073668;28;20119;-11
2023/01/17 08:10:21;;;;;;;24.52;15.50;;;4.90;87.10;;;;;;5072865;28;20033;-12
2023/01/17 08:12:48;;;;;;;22.67;13.88;;;4.90;87.10;;;;;;5072756;28;20040;-12
2023/01/17 08:15:16;;;;;;;28.42;16.45;;;4.90;87.10;;;;;;5073092;28;20031;-13
2023/01/17 08:17:51;;;;;;;26.50;16.25;;;5.00;87.20;;;;;;5072788;28;20531;-13
2023/01/17 08:20:18;;;;;;;25.77;15.57;;;5.00;87.30;;;;;;5072844;28;20511;-12
2023/01/17 08:22:44;;;;;;;27.92;16.65;;;5.00;87.40;;;;;;5072915;28;20112;-12
2023/01/17 08:25:11;;;;;;;27.20;16.35;;;5.10;87.40;;;;;;5072539;28;20445;-12
2023/01/17 08:27:38;;;;;;;28.58;17.23;;;5.10;87.40;;;;;;5072771;28;20086;-12
2023/01/17 08:30:05;;;;;;;25.98;15.48;;;5.10;87.40;;;;;;5072880;28;20028;-12
2023/01/17 08:32:32;;;;;;;48.55;23.20;;;5.10;87.40;;;;;;5072726;28;20020;-13
2023/01/17 08:34:58;;;;;;;41.20;22.27;;;5.20;87.40;;;;;;5071227;28;20103;-12
2023/01/17 08:37:24;;;;;;;39.80;21.98;;;5.20;87.40;;;;;;5072867;28;20520;-12
2023/01/17 08:39:50;;;;;;;30.15;17.70;;;5.30;87.40;;;;;;5072656;28;20024;-13
2023/01/17 08:42:16;;;;;;;31.13;19.88;;;5.40;87.30;;;;;;5072500;28;20481;-12
2023/01/17 08:44:42;;;;;;;31.23;18.63;;;5.40;87.30;;;;;;5072850;28;20111;-12
2023/01/17 08:47:09;;;;;;;31.15;17.63;;;5.50;87.20;;;;;;5072621;28;20090;-12
2023/01/17 08:49:34;;;;;;;32.00;18.13;;;5.50;87.10;;;;;;5072356;28;20039;-13
2023/01/17 08:52:00;;;;;;;30.38;16.83;;;5.50;87.10;;;;;;5071830;28;20116;-12
2023/01/17 08:54:27;;;;;;;29.95;18.17;;;5.50;87.10;;;;;;5071035;28;20105;-12
2023/01/17 08:56:54;;;;;;;26.90;15.90;;;5.50;87.00;;;;;;5072383;28;20120;-12
2023/01/17 08:59:20;;;;;;;31.30;17.55;;;5.50;87.00;;;;;;5072303;28;20099;-12
2023/01/17 09:01:46;;;;;;;27.65;16.33;;;5.60;86.90;;;;;;5072504;28;20539;-12
2023/01/17 09:04:12;;;;;;;27.13;16.58;;;5.60;86.80;;;;;;5072605;28;20024;-11
2023/01/17 09:06:40;;;;;;;31.40;17.52;;;5.60;86.70;;;;;;5072552;28;20029;-13
2023/01/17 09:09:07;;;;;;;30.10;17.08;;;5.60;86.50;;;;;;5072275;28;20028;-12
2023/01/17 09:11:33;;;;;;;34.75;17.58;;;5.70;86.40;;;;;;5072437;28;20044;-12
2023/01/17 09:14:00;;;;;;;32.28;17.77;;;5.80;86.40;;;;;;5072473;28;20036;-12
2023/01/17 09:16:27;;;;;;;29.65;16.58;;;5.80;86.40;;;;;;5072457;28;20054;-14
2023/01/17 09:18:57;;;;;;;33.28;17.48;;;5.80;86.10;;;;;;5072386;28;20025;-13
2023/01/17 09:21:23;;;;;;;28.02;17.05;;;5.90;85.90;;;;;;5072133;28;20108;-13
2023/01/17 09:23:49;;;;;;;33.05;18.42;;;5.80;85.80;;;;;;5070640;28;20031;-12
2023/01/17 09:26:24;;;;;;;32.58;17.70;;;5.80;86.00;;;;;;5072115;28;20029;-12
2023/01/17 09:28:51;;;;;;;28.77;17.33;;;5.80;86.10;;;;;;5071695;28;20037;-13
2023/01/17 09:31:20;;;;;;;33.20;17.65;;;5.80;86.20;;;;;;5072023;28;20476;-13
2023/01/17 09:33:47;;;;;;;32.42;17.90;;;5.70;86.10;;;;;;5072833;28;20024;-12
2023/01/17 09:36:13;;;;;;;28.95;16.08;;;5.70;86.10;;;;;;5072311;28;20109;-13
2023/01/17 09:38:39;;;;;;;34.03;17.02;;;5.70;86.10;;;;;;5072181;28;20488;-14
2023/01/17 09:41:27;;;;;;;30.30;16.05;;;5.70;86.00;;;;;;5071612;28;20025;-14
2023/01/17 09:43:56;;;;;;;33.88;16.38;;;5.60;86.10;;;;;;5071778;28;20054;-13
2023/01/17 09:46:26;;;;;;;33.10;15.98;;;5.60;86.20;;;;;;5071929;28;20412;-13
2023/01/17 09:49:07;;;;;;;28.63;15.68;;;5.70;86.20;;;;;;5071614;28;20393;-13
2023/01/17 09:51:33;;;;;;;30.92;15.98;;;5.70;86.20;;;;;;5072136;28;20048;-12
2023/01/17 09:54:01;;;;;;;30.42;16.45;;;5.70;86.30;;;;;;5071620;28;20357;-13
2023/01/17 09:56:53;;;;;;;28.65;14.63;;;5.60;86.30;;;;;;5072033;28;20028;-13
2023/01/17 09:59:42;;;;;;;27.83;13.98;;;5.60;86.30;;;;;;5072145;28;20037;-13
2023/01/17 10:02:30;;;;;;;25.38;12.65;;;5.70;86.40;;;;;;5072337;28;20017;-13
2023/01/17 10:05:18;;;;;;;23.30;13.43;;;5.70;86.30;;;;;;5073613;28;20131;-13
2023/01/17 10:07:49;;;;;;;21.17;11.70;;;5.70;86.30;;;;;;5075210;28;20055;-13
2023/01/17 10:10:20;;;;;;;20.63;11.43;;;5.70;86.30;;;;;;5075260;28;20114;-13
2023/01/17 10:12:57;;;;;;;19.88;11.13;;;5.80;86.20;;;;;;5075324;28;20079;-13
2023/01/17 10:15:47;;;;;;;20.52;10.85;;;5.80;86.30;;;;;;5075509;28;20017;-14
2023/01/17 10:19:07;;;;;;;19.02;10.15;;;5.80;86.20;;;;;;5075515;28;20021;-13
2023/01/17 10:21:48;;;;;;;19.80;9.85;;;5.80;86.30;;;;;;5053407;28;20025;-14
2023/01/17 10:24:51;;;;;;;18.45;10.15;;;5.80;86.30;;;;;;5075042;28;20028;-13
2023/01/17 10:27:31;;;;;;;18.23;9.70;;;5.90;86.30;;;;;;5074730;28;20048;-14
2023/01/17 10:29:58;;;;;;;20.25;8.90;;;5.90;86.60;;;;;;5074782;28;20033;-14
2023/01/17 10:32:31;;;;;;;15.43;8.68;;;5.90;86.50;;;;;;5074901;28;20024;-14
2023/01/17 10:35:02;;;;;;;15.55;9.15;;;5.90;86.50;;;;;;5074680;28;20075;-14
2023/01/17 10:37:41;;;;;;;17.90;10.38;;;5.90;86.40;;;;;;5075503;28;20032;-13
2023/01/17 10:40:27;;;;;;;15.90;9.23;;;5.90;86.20;;;;;;5074940;28;20089;-14
2023/01/17 10:43:01;;;;;;;16.80;9.70;;;6.00;86.20;;;;;;5073225;28;20056;-13
2023/01/17 10:45:29;;;;;;;16.75;9.75;;;5.90;86.10;;;;;;5075288;28;20046;-14
2023/01/17 10:48:21;;;;;;;19.02;10.38;;;6.00;86.10;;;;;;5075406;28;20029;-14
2023/01/17 10:50:50;;;;;;;17.45;10.32;;;6.00;86.10;;;;;;5070724;28;20082;-14
2023/01/17 10:53:41;;;;;;;19.00;11.15;;;6.00;86.20;;;;;;5075029;28;20036;-14
2023/01/17 10:56:09;;;;;;;18.27;10.75;;;6.10;86.30;;;;;;5074356;28;20028;-15
2023/01/17 10:58:34;;;;;;;15.63;10.05;;;6.10;86.40;;;;;;5074684;28;20040;-14
2023/01/17 11:01:06;;;;;;;19.77;10.73;;;6.10;86.50;;;;;;5074097;28;20388;-15
2023/01/17 11:03:33;;;;;;;18.63;11.13;;;6.00;86.40;;;;;;5074665;28;20350;-13
2023/01/17 11:06:19;;;;;;;21.33;11.43;;;6.10;86.30;;;;;;5074286;28;20028;-14
2023/01/17 11:08:54;;;;;;;17.52;10.52;;;6.10;86.30;;;;;;5073822;28;20064;-14
2023/01/17 11:11:32;;;;;;;16.58;9.82;;;6.20;86.20;;;;;;5074217;28;20078;-14
2023/01/17 11:14:05;;;;;;;18.58;10.57;;;6.10;86.10;;;;;;5074527;28;20025;-14
2023/01/17 11:16:31;;;;;;;16.50;10.25;;;6.20;86.20;;;;;;5073940;28;20048;-13
2023/01/17 11:19:15;;;;;;;17.17;10.25;;;6.20;86.10;;;;;;5074080;28;20024;-14
2023/01/17 11:21:53;;;;;;;16.55;9.93;;;6.10;86.10;;;;;;5074324;28;20063;-15
2023/01/17 11:24:29;;;;;;;18.67;10.82;;;6.10;86.10;;;;;;5073755;28;20036;-14
2023/01/17 11:26:56;;;;;;;20.13;11.88;;;6.20;86.20;;;;;;5073340;28;20186;-14
2023/01/17 11:29:28;;;;;;;19.23;10.43;;;6.10;86.30;;;;;;5073737;28;20073;-13
2023/01/17 11:31:58;;;;;;;17.52;10.90;;;6.10;86.30;;;;;;5074126;28;20032;-13
2023/01/17 11:34:28;;;;;;;21.05;12.15;;;6.10;86.40;;;;;;5073692;28;20103;-14
2023/01/17 11:37:18;;;;;;;19.65;11.43;;;6.10;86.40;;;;;;5073587;28;20115;-13
2023/01/17 11:39:48;;;;;;;18.70;11.10;;;6.10;86.80;;;;;;5073866;28;20103;-14
2023/01/17 11:42:32;;;;;;;15.73;10.32;;;6.10;86.80;;;;;;5073604;28;20315;-14
2023/01/17 11:45:24;;;;;;;17.90;10.63;;;6.10;87.00;;;;;;5073605;28;20134;-14
2023/01/17 11:48:11;;;;;;;18.58;10.07;;;6.00;86.90;;;;;;5073583;28;20062;-13
2023/01/17 11:50:55;;;;;;;19.65;11.10;;;6.00;87.10;;;;;;5074031;28;20072;-14
2023/01/17 11:53:37;;;;;;;19.85;11.35;;;6.10;87.10;;;;;;5073895;28;20024;-14
2023/01/17 11:56:19;;;;;;;21.05;11.65;;;6.10;87.00;;;;;;5073243;28;20034;-13
2023/01/17 11:58:46;;;;;;;18.05;10.23;;;6.20;87.00;;;;;;5073122;28;20402;-14
2023/01/17 12:01:28;;;;;;;19.73;10.73;;;6.20;86.90;;;;;;5073031;28;20064;-13
2023/01/17 12:04:07;;;;;;;19.25;11.57;;;6.20;86.90;;;;;;5073157;28;20028;-14
2023/01/17 12:06:43;;;;;;;19.83;11.23;;;6.20;86.80;;;;;;5073098;28;20035;-13
2023/01/17 12:09:24;;;;;;;19.58;10.77;;;6.30;86.80;;;;;;5072727;28;20400;-14
2023/01/17 12:15:25;;;;;;;19.77;10.27;;;6.30;86.80;;;;;;5073099;28;20448;-14
2023/01/17 12:18:04;;;;;;;17.63;9.85;;;6.20;86.80;;;;;;5072926;28;20052;-13
2023/01/17 12:20:45;;;;;;;17.33;9.73;;;6.20;86.70;;;;;;5072902;28;20040;-14
2023/01/17 12:23:18;;;;;;;17.65;9.77;;;6.10;86.90;;;;;;5073464;28;20017;-13
2023/01/17 12:26:12;;;;;;;19.37;10.50;;;6.10;87.10;;;;;;5072990;28;20037;-14
2023/01/17 12:29:15;;;;;;;18.05;10.48;;;6.10;87.40;;;;;;5072122;28;20313;-13
2023/01/17 12:31:46;;;;;;;15.07;8.45;;;6.10;87.30;;;;;;5073123;28;20037;-13
2023/01/17 12:34:25;;;;;;;13.60;7.45;;;6.10;87.00;;;;;;5072908;28;20377;-12
2023/01/17 12:37:17;;;;;;;14.57;6.78;;;6.00;86.80;;;;;;5072572;28;20111;-14
2023/01/17 12:40:11;;;;;;;14.73;7.20;;;6.00;86.70;;;;;;5072847;28;20480;-13
2023/01/17 12:42:42;;;;;;;12.75;6.80;;;5.90;86.60;;;;;;5068895;28;20039;-13
2023/01/17 12:45:30;;;;;;;11.45;6.82;;;5.90;86.80;;;;;;5072479;28;20039;-14
2023/01/17 12:48:21;;;;;;;12.85;5.97;;;5.80;86.70;;;;;;5072732;28;20021;-12
2023/01/17 12:50:56;;;;;;;11.55;5.93;;;5.80;86.70;;;;;;5069383;28;20589;-14
2023/01/17 12:53:39;;;;;;;11.60;5.65;;;5.70;86.70;;;;;;5072543;28;20163;-14
2023/01/17 12:56:13;;;;;;;9.27;5.10;;;5.70;86.90;;;;;;5072613;28;20048;-11
2023/01/17 12:58:47;;;;;;;9.70;4.60;;;5.70;86.70;;;;;;5072695;28;20456;-11
2023/01/17 13:01:30;;;;;;;8.60;4.53;;;5.60;86.70;;;;;;5072856;28;20145;-12
2023/01/17 13:04:23;;;;;;;9.32;4.60;;;5.60;86.80;;;;;;5072758;28;20020;-12
2023/01/17 13:06:58;;;;;;;9.55;4.90;;;5.50;86.40;;;;;;5070985;28;20086;-13
2023/01/17 13:09:27;;;;;;;9.35;4.70;;;5.50;86.80;;;;;;5072241;28;20037;-12
2023/01/17 13:12:02;;;;;;;7.97;4.18;;;5.50;86.90;;;;;;5072580;28;20028;-13
2023/01/17 13:14:29;;;;;;;9.32;4.63;;;5.50;86.60;;;;;;5072410;28;20040;-13
2023/01/17 13:16:58;;;;;;;9.35;4.80;;;5.50;86.60;;;;;;5072224;28;20027;-13
2023/01/17 13:19:59;;;;;;;8.95;4.90;;;5.50;86.80;;;;;;5072627;28;20040;-13
2023/01/17 13:22:26;;;;;;;10.00;5.25;;;5.50;86.30;;;;;;5050114;28;20033;-13
2023/01/17 13:24:59;;;;;;;9.40;5.13;;;5.50;86.60;;;;;;5067295;28;20036;-13
2023/01/17 13:28:02;;;;;;;8.80;5.40;;;5.50;86.60;;;;;;5072104;28;20377;-12
2023/01/17 13:30:31;;;;;;;9.57;5.13;;;5.40;86.50;;;;;;5072096;28;20399;-13
2023/01/17 13:33:22;;;;;;;12.77;6.07;;;5.40;86.70;;;;;;5071795;28;20028;-13
2023/01/17 13:36:02;;;;;;;13.05;6.30;;;5.40;86.80;;;;;;5072206;28;20415;-12
2023/01/17 13:38:32;;;;;;;13.30;5.97;;;5.30;86.90;;;;;;5073275;28;20465;-13
2023/01/17 13:41:10;;;;;;;13.60;8.60;;;5.30;86.60;;;;;;5076020;28;20115;-12
2023/01/17 13:43:39;;;;;;;9.20;5.40;;;5.30;86.70;;;;;;5074671;28;20029;-14
2023/01/17 13:46:06;;;;;;;13.38;6.53;;;5.30;86.70;;;;;;5076156;28;20033;-13
2023/01/17 13:48:32;;;;;;;11.23;6.00;;;5.40;86.80;;;;;;5076043;28;20358;-13
2023/01/17 13:51:07;;;;;;;9.98;5.57;;;5.40;86.80;;;;;;5075453;28;20477;-13
2023/01/17 13:53:33;;;;;;;9.68;5.38;;;5.40;86.80;;;;;;5075752;28;20130;-13
2023/01/17 13:56:24;;;;;;;9.80;5.30;;;5.40;86.90;;;;;;5075820;28;20024;-13
2023/01/17 13:58:57;;;;;;;13.15;7.00;;;5.40;86.80;;;;;;5076264;28;20040;-14
2023/01/17 14:01:22;;;;;;;17.10;8.95;;;5.50;86.70;;;;;;5076005;28;20119;-13
2023/01/17 14:03:49;;;;;;;10.52;5.60;;;5.40;86.60;;;;;;5075475;28;20068;-14
2023/01/17 14:06:49;;;;;;;8.85;5.60;;;5.40;86.70;;;;;;5075944;28;20028;-13
2023/01/17 14:09:39;;;;;;;12.25;5.80;;;5.40;86.80;;;;;;5053196;28;20040;-13
2023/01/17 14:12:07;;;;;;;9.07;5.15;;;5.50;86.80;;;;;;5053263;28;20446;-13
2023/01/17 14:14:38;;;;;;;11.10;5.30;;;5.50;86.80;;;;;;5036494;28;20037;-13
2023/01/17 14:17:24;;;;;;;10.07;5.70;;;5.50;86.80;;;;;;5053034;28;20040;-13
2023/01/17 14:20:07;;;;;;;13.02;5.70;;;5.50;86.90;;;;;;5053202;28;20087;-12
2023/01/17 14:22:47;;;;;;;14.52;7.57;;;5.60;86.50;;;;;;5053034;28;20036;-12
2023/01/17 14:25:26;;;;;;;8.85;5.40;;;5.60;86.60;;;;;;5052692;28;20440;-13
2023/01/17 14:27:57;;;;;;;12.38;6.10;;;5.60;86.30;;;;;;5052581;28;20607;-14
2023/01/17 14:30:26;;;;;;;9.30;5.45;;;5.60;85.70;;;;;;5052929;28;20220;-13